Latest Weather Observations for Bundaberg

IDQ60801

Issued at 8:02 pm EST Sunday 2 August 2015 (issued every 30 minutes, with the page automatically refreshed every 10 minutes)

About weather observations | Map of weather stations | Latest weather observations for QLD | Other Formats
Station Details ID: 039128 Name: BUNDABERG AERO Lat: -24.91 Lon: 152.32 Height: 30.82 m
Data from the previous 72 hours. | See also: Recent months at Bundaberg
Date/Time
EST
Temp
°C
App
Temp
°C
Dew
Point
Rel
Hum
%
Delta-T
°C
Wind Press
QNH
hPa
Press
MSL
hPa
Rain
since 9 am
mm
Dir
 
Spd
km/h
Gust
km/h
Spd
kts
Gust
kts
02/08:00pm 16.7 15.8 13.8 83 1.6 NNE 11 13 6 7 1021.0 1021.0 0.0
02/07:30pm 17.1 16.3 14.0 82 1.8 NNE 11 13 6 7 1020.9 1020.9 0.0
02/07:00pm 17.6 16.4 14.1 80 2.0 NNE 13 15 7 8 1020.6 1020.6 0.0
02/06:30pm 18.3 16.7 14.0 76 2.5 NNE 15 17 8 9 1020.4 1020.4 0.0
02/06:00pm 19.1 17.4 13.7 71 3.1 NNE 15 19 8 10 1020.2 1020.2 0.0
02/05:30pm 20.1 17.9 13.3 65 3.9 NNE 17 20 9 11 1020.1 1020.1 0.0
02/05:00pm 21.4 18.7 12.8 58 4.9 N 19 24 10 13 1020.1 1020.1 0.0
02/04:30pm 22.3 19.2 12.3 53 5.7 N 20 28 11 15 1020.0 1020.0 0.0
02/04:00pm 22.9 19.8 11.6 49 6.3 N 19 28 10 15 1020.0 1020.0 0.0
02/03:30pm 24.0 20.5 11.0 44 7.3 N 20 32 11 17 1020.1 1020.1 0.0
02/03:00pm 24.2 21.1 11.5 45 7.1 N 19 30 10 16 1020.2 1020.2 0.0
02/02:30pm 24.4 21.0 11.4 44 7.3 N 20 28 11 15 1020.3 1020.3 0.0
02/02:00pm 24.6 20.7 9.3 38 8.3 N 20 28 11 15 1020.4 1020.4 0.0
02/01:30pm 24.5 21.3 10.0 40 8.0 N 17 28 9 15 1020.8 1020.8 0.0
02/01:00pm 24.3 21.0 9.5 39 8.0 N 17 30 9 16 1021.3 1021.3 0.0
02/12:30pm 24.5 21.0 10.8 42 7.6 N 20 28 11 15 1021.9 1021.9 0.0
02/12:00pm 25.2 22.8 12.8 46 7.2 N 17 28 9 15 1022.3 1022.3 0.0
02/11:30am 24.0 20.9 10.3 42 7.6 NNE 17 28 9 15 1022.7 1022.7 0.0
02/11:00am 23.0 20.5 12.3 51 6.1 N 17 24 9 13 1022.9 1022.9 0.0
02/10:30am 23.0 22.0 13.5 55 5.5 N 11 17 6 9 1023.3 1023.3 0.0
02/10:00am 21.9 21.2 13.3 58 4.9 E 9 15 5 8 1023.6 1023.6 0.0
02/09:30am 20.4 19.5 12.6 61 4.4 SE 9 13 5 7 1023.6 1023.6 0.0
02/09:00am 19.2 18.7 12.7 66 3.6 SE 7 11 4 6 1023.6 1023.6 0.0
02/08:30am 17.1 16.5 12.4 74 2.6 S 7 11 4 6 1023.3 1023.3 0.0
02/08:00am 14.9 14.2 12.0 83 1.6 S 7 9 4 5 1023.2 1023.2 0.0
02/07:30am 12.8 12.5 11.5 92 0.7 SSW 4 9 2 5 1023.2 1023.2 0.0
02/07:00am 10.0 8.5 8.6 91 0.7 SSW 6 9 3 5 1023.0 1023.0 0.0
02/06:30am 9.7 8.2 8.3 91 0.7 SW 6 9 3 5 1022.8 1022.8 0.0
02/06:00am 10.1 9.8 8.7 91 0.7 CALM 0 0 0 0 1022.6 1022.6 0.0
02/05:30am 10.9 9.7 9.5 91 0.7 SSW 6 7 3 4 1022.4 1022.4 0.0
02/05:00am 10.2 9.6 9.1 93 0.5 SSW 2 7 1 4 1022.4 1022.4 0.0
02/04:30am 9.9 9.6 8.8 93 0.5 CALM 0 0 0 0 1022.4 1022.4 0.0
02/04:00am 9.9 9.7 9.0 94 0.4 CALM 0 0 0 0 1022.3 1022.3 0.0
02/03:30am 8.5 7.8 7.0 90 0.7 CALM 0 0 0 0 1022.2 1022.2 0.0
02/03:00am 9.1 8.3 8.0 93 0.5 SSW 2 7 1 4 1022.4 1022.4 0.0
02/02:30am 8.8 8.2 7.4 91 0.7 CALM 0 0 0 0 1022.5 1022.5 0.0
02/02:00am 8.7 8.0 7.0 89 0.8 CALM 0 0 0 0 1022.5 1022.5 0.0
02/01:30am 9.2 8.6 7.6 90 0.8 CALM 0 0 0 0 1022.4 1022.4 0.0
02/01:00am 9.7 9.4 8.5 92 0.6 CALM 0 0 0 0 1022.7 1022.7 0.0
02/12:30am 9.9 9.5 8.3 90 0.8 CALM 0 0 0 0 1022.9 1022.9 0.0
02/12:00am 10.1 9.7 8.2 88 0.9 CALM 0 0 0 0 1023.2 1023.2 0.0
 
Date/Time
EST
Temp
°C
App
Temp
°C
Dew
Point
Rel
Hum
%
Delta-T
°C
Wind Press
QNH
hPa
Press
MSL
hPa
Rain
since 9 am
mm
Dir
 
Spd
km/h
Gust
km/h
Spd
kts
Gust
kts
01/11:30pm 10.3 9.9 8.4 88 0.9 CALM 0 0 0 0 1023.3 1023.3 0.0
01/11:00pm 11.2 11.1 9.5 89 0.9 CALM 0 0 0 0 1023.3 1023.3 0.0
01/10:30pm 11.1 10.9 9.0 87 1.0 CALM 0 0 0 0 1023.4 1023.4 0.0
01/10:00pm 11.4 11.1 8.6 83 1.4 CALM 0 0 0 0 1023.5 1023.5 0.0
01/09:30pm 12.2 12.0 8.9 80 1.7 CALM 0 0 0 0 1023.4 1023.4 0.0
01/09:00pm 12.8 12.7 9.6 81 1.6 CALM 0 0 0 0 1023.4 1023.4 0.0
01/08:30pm 13.0 12.8 9.1 77 2.0 CALM 0 0 0 0 1023.3 1023.3 0.0
01/08:00pm 14.6 14.7 10.0 74 2.4 CALM 0 0 0 0 1022.9 1022.9 0.0
01/07:30pm 15.1 15.1 9.9 71 2.7 CALM 0 0 0 0 1022.6 1022.6 0.0
01/07:00pm 16.0 14.9 9.9 67 3.2 NNE 6 7 3 4 1022.3 1022.3 0.0
01/06:30pm 17.0 15.7 9.9 63 3.7 NNE 7 9 4 5 1021.8 1021.8 0.0
01/06:00pm 17.6 15.9 9.8 60 4.1 NE 9 11 5 6 1021.4 1021.4 0.0
01/05:30pm 19.1 17.3 9.3 53 5.2 ENE 9 11 5 6 1021.3 1021.3 0.0
01/05:00pm 21.0 18.7 8.9 46 6.4 ENE 11 15 6 8 1021.2 1021.2 0.0
01/04:30pm 22.2 19.5 9.0 43 7.0 ESE 13 17 7 9 1021.1 1021.1 0.0
01/04:00pm 22.7 19.7 9.1 42 7.3 ESE 15 20 8 11 1021.1 1021.1 0.0
01/03:30pm 23.4 20.9 8.3 38 8.0 ESE 11 19 6 10 1021.0 1021.0 0.0
01/03:00pm 23.7 21.2 8.2 37 8.2 E 11 20 6 11 1021.0 1021.0 0.0
01/02:30pm 23.6 21.0 7.7 36 8.4 E 11 20 6 11 1021.0 1021.0 0.0
01/02:00pm 23.7 20.8 8.2 37 8.2 ESE 13 19 7 10 1021.1 1021.1 0.0
01/01:30pm 23.9 21.1 8.7 38 8.2 E 13 20 7 11 1021.3 1021.3 0.0
01/01:00pm 24.3 21.5 8.7 37 8.4 E 13 22 7 12 1021.8 1021.8 0.0
01/12:30pm 23.3 20.4 8.2 38 8.0 ENE 13 22 7 12 1022.3 1022.3 0.0
01/12:00pm 23.3 20.4 9.7 42 7.4 ENE 15 20 8 11 1022.7 1022.7 0.0
01/11:30am 23.1 20.2 9.5 42 7.4 E 15 24 8 13 1023.3 1023.3 0.0
01/11:00am 22.9 20.9 10.3 45 6.9 NE 11 17 6 9 1023.7 1023.7 0.0
01/10:30am 22.5 21.1 10.9 48 6.4 SE 9 17 5 9 1024.0 1024.0 0.0
01/10:00am 21.1 19.7 10.9 52 5.6 SE 9 15 5 8 1024.3 1024.3 0.0
01/09:30am 19.1 17.8 10.1 56 4.8 S 7 11 4 6 1024.2 1024.2 0.0
01/09:00am 17.4 15.5 9.1 58 4.3 SSW 9 13 5 7 1024.0 1024.0 0.0
01/08:30am 15.5 13.7 8.0 61 3.8 S 7 11 4 6 1023.6 1023.6 0.0
01/08:00am 13.5 11.7 7.3 66 3.0 S 6 11 3 6 1023.4 1023.4 0.0
01/07:30am 10.6 10.2 8.2 85 1.2 CALM 0 0 0 0 1023.3 1023.3 0.0
01/07:00am 7.6 6.7 6.2 91 0.6 CALM 0 0 0 0 1023.0 1023.0 0.0
01/06:30am 7.0 5.9 5.3 89 0.8 CALM 0 0 0 0 1022.9 1022.9 0.0
01/06:00am 7.4 6.4 5.5 88 0.8 CALM 0 0 0 0 1022.8 1022.8 0.0
01/05:30am 7.5 6.5 5.8 89 0.8 CALM 0 0 0 0 1022.6 1022.6 0.0
01/05:00am 7.5 6.5 5.6 88 0.8 CALM 0 0 0 0 1022.2 1022.2 0.0
01/04:30am 7.8 6.8 5.8 87 0.9 CALM 0 0 0 0 1022.0 1022.0 0.0
01/04:00am 7.6 5.4 5.2 85 1.1 SSW 6 7 3 4 1022.0 1022.0 0.0
01/03:30am 8.4 7.4 5.7 83 1.2 CALM 0 0 0 0 1021.8 1021.8 0.0
01/03:00am 8.5 6.2 5.8 83 1.2 SSW 7 9 4 5 1022.1 1022.1 0.0
01/02:30am 8.6 6.5 6.6 87 0.9 SSW 7 9 4 5 1022.0 1022.0 0.0
01/02:00am 8.8 6.7 6.8 87 0.9 SSW 7 9 4 5 1022.0 1022.0 0.0
01/01:30am 8.7 6.8 6.5 86 1.0 S 6 7 3 4 1022.2 1022.2 0.0
01/01:00am 8.9 8.0 6.2 83 1.2 CALM 0 0 0 0 1022.4 1022.4 0.0
01/12:30am 9.8 7.5 7.4 85 1.1 SSW 9 13 5 7 1022.5 1022.5 0.0
01/12:00am 10.4 8.3 8.2 86 1.1 S 9 11 5 6 1022.5 1022.5 0.0
 
Date/Time
EST
Temp
°C
App
Temp
°C
Dew
Point
Rel
Hum
%
Delta-T
°C
Wind Press
QNH
hPa
Press
MSL
hPa
Rain
since 9 am
mm
Dir
 
Spd
km/h
Gust
km/h
Spd
kts
Gust
kts
31/11:30pm 9.4 7.5 6.7 83 1.3 SSW 6 9 3 5 1022.4 1022.4 0.0
31/11:00pm 9.4 7.5 6.7 83 1.3 SSW 6 7 3 4 1022.4 1022.4 0.0
31/10:30pm 10.1 7.4 7.2 82 1.4 W 11 13 6 7 1022.3 1022.3 0.0
31/10:00pm 10.5 8.6 7.7 83 1.3 W 7 9 4 5 1022.3 1022.3 0.0
31/09:30pm 10.8 10.2 7.3 79 1.7 CALM 0 0 0 0 1022.3 1022.3 0.0
31/09:00pm 11.3 10.5 6.6 73 2.2 CALM 0 0 0 0 1022.3 1022.3 0.0
31/08:30pm 12.0 11.3 7.1 72 2.4 CALM 0 0 0 0 1022.2 1022.2 0.0
31/08:00pm 12.1 11.3 6.6 69 2.6 CALM 0 0 0 0 1022.0 1022.0 0.0
31/07:30pm 12.5 11.7 6.3 66 2.9 CALM 0 0 0 0 1021.8 1021.8 0.0
31/07:00pm 14.2 13.4 6.6 60 3.7 CALM 0 0 0 0 1021.5 1021.5 0.0
31/06:30pm 15.6 14.7 6.1 53 4.6 CALM 0 0 0 0 1021.2 1021.2 0.0
31/06:00pm 17.6 15.4 5.2 44 6.0 NNE 6 7 3 4 1020.9 1020.9 0.0
31/05:30pm 18.6 15.9 5.5 42 6.4 NNE 9 11 5 6 1020.7 1020.7 0.0
31/05:00pm 20.6 17.3 4.6 35 7.8 NE 11 13 6 7 1020.5 1020.5 0.0
31/04:30pm 21.7 18.1 5.2 34 8.2 NE 13 17 7 9 1020.2 1020.2 0.0
31/04:00pm 22.3 18.0 5.3 33 8.5 ENE 17 22 9 12 1020.2 1020.2 0.0
31/03:30pm 23.1 19.0 6.4 34 8.5 NE 17 22 9 12 1020.1 1020.1 0.0
31/03:00pm 23.0 18.3 5.9 33 8.6 NNE 20 28 11 15 1020.3 1020.3 0.0
31/02:30pm 23.6 19.2 6.4 33 8.8 NNE 19 28 10 15 1020.6 1020.6 0.0
31/02:00pm 23.7 20.8 6.5 33 8.8 ESE 11 19 6 10 1020.7 1020.7 0.0
31/01:30pm 24.1 21.2 6.4 32 9.1 SSE 11 20 6 11 1021.1 1021.1 0.0
31/01:00pm 23.5 21.0 6.7 34 8.6 SSW 9 13 5 7 1021.6 1021.6 0.0
31/12:30pm 23.6 20.7 6.4 33 8.8 SW 11 19 6 10 1022.3 1022.3 0.0
31/12:00pm 23.7 21.2 6.5 33 8.8 ESE 9 13 5 7 1022.8 1022.8 0.0
31/11:30am 22.6 21.1 8.3 40 7.6 E 6 11 3 6 1023.2 1023.2 0.0
31/11:00am 22.2 20.7 10.4 47 6.4 SSW 9 15 5 8 1023.8 1023.8 0.0
31/10:30am 21.1 19.2 9.0 46 6.4 SSW 9 15 5 8 1024.3 1024.3 0.0
31/10:00am 20.9 20.2 11.5 55 5.2 ESE 6 9 3 5 1024.4 1024.4 0.0
31/09:30am 19.3 19.3 13.5 69 3.3 SSE 6 9 3 5 1024.3 1024.3 0.0
31/09:00am 17.2 17.1 13.9 81 1.9 SE 7 11 4 6 1024.5 1024.5 0.0
31/08:30am 15.6 15.1 13.8 89 1.0 SSE 9 13 5 7 1024.2 1024.2 0.0
31/08:00am 13.4 12.6 12.9 97 0.3 S 9 13 5 7 1024.0 1024.0 0.0
31/07:46am 12.4 13.0 11.9 97 0.3 CALM 0 7 0 4 1023.8 1023.8 0.0
31/07:30am 10.9 11.0 10.3 96 0.3 CALM 0 0 0 0 1023.4 1023.4 0.0
31/07:27am 10.6 10.7 10.0 96 0.3 CALM 0 0 0 0 1023.4 1023.4 0.0
31/07:20am 10.2 9.8 9.6 96 0.3 W 2 7 1 4 1023.4 1023.4 0.0
31/07:03am 9.0 7.4 7.9 93 0.5 W 6 7 3 4 1023.5 1023.5 0.0
31/07:00am 9.1 7.9 8.2 94 0.4 W 4 7 2 4 1023.5 1023.5 0.0
31/06:55am 9.8 9.6 9.0 95 0.4 CALM 0 6 0 3 1023.5 1023.5 0.0
31/06:50am 9.8 9.6 9.0 95 0.4 CALM 0 0 0 0 1023.5 1023.5 0.0
31/06:30am 9.9 9.0 9.1 95 0.4 W 4 6 2 3 1023.4 1023.4 0.0
31/06:28am 10.4 9.6 9.8 96 0.3 WSW 4 9 2 5 1023.4 1023.4 0.0
31/06:00am 11.4 8.9 10.9 97 0.3 SSW 15 20 8 11 1023.2 1023.2 0.0
31/05:48am 11.3 8.7 10.8 97 0.3 SSW 15 19 8 10 1023.1 1023.1 0.0
31/05:30am 11.0 8.3 10.5 97 0.3 S 15 19 8 10 1023.0 1023.0 0.0
31/05:06am 11.1 8.8 10.6 97 0.3 SSW 13 17 7 9 1022.8 1022.8 0.0
31/05:00am 10.3 8.5 9.5 95 0.4 SSW 9 15 5 8 1022.7 1022.7 0.0
31/04:30am 9.3 8.9 8.2 93 0.5 CALM 0 0 0 0 1022.4 1022.4 0.0
31/04:01am 10.5 9.3 9.6 94 0.5 SW 6 7 3 4 1022.6 1022.6 0.0
31/04:00am 10.4 9.2 9.6 95 0.4 SW 6 7 3 4 1022.6 1022.6 0.0
31/03:48am 11.1 9.5 10.3 95 0.4 SW 9 13 5 7 1022.7 1022.7 0.0
31/03:30am 11.8 10.5 11.2 96 0.3 SSW 9 13 5 7 1022.8 1022.8 0.0
31/03:00am 11.8 10.1 11.2 96 0.3 SW 11 13 6 7 1023.1 1023.1 0.0
31/02:50am 12.1 10.5 11.6 97 0.3 SW 11 17 6 9 1023.1 1023.1 0.0
31/02:30am 12.5 11.1 12.2 98 0.2 SSW 11 17 6 9 1023.2 1023.2 0.0
31/02:11am 11.5 10.1 10.9 96 0.3 SW 9 13 5 7 1023.3 1023.3 0.0
31/02:00am 11.4 10.3 10.8 96 0.3 SW 7 9 4 5 1023.2 1023.2 0.0
31/01:58am 11.3 10.2 10.7 96 0.3 SW 7 9 4 5 1023.2 1023.2 0.0
31/01:49am 11.6 10.2 11.0 96 0.3 SW 9 11 5 6 1023.3 1023.3 0.0
31/01:30am 12.4 10.9 11.9 97 0.3 SW 11 13 6 7 1023.6 1023.6 0.0
31/01:00am 12.1 11.0 11.8 98 0.2 SW 9 13 5 7 1024.0 1024.0 0.0
31/12:30am 11.3 9.9 10.8 97 0.3 WSW 9 11 5 6 1024.4 1024.4 0.0
31/12:29am 11.4 10.0 10.9 97 0.3 WSW 9 11 5 6 1024.4 1024.4 0.0
31/12:06am 10.3 8.9 9.4 94 0.4 WSW 7 7 4 4 1024.5 1024.5 0.0
31/12:00am 10.5 9.3 9.6 94 0.4 WSW 6 7 3 4 1024.5 1024.5 0.0
 
Date/Time
EST
Temp
°C
App
Temp
°C
Dew
Point
Rel
Hum
%
Delta-T
°C
Wind Press
QNH
hPa
Press
MSL
hPa
Rain
since 9 am
mm
Dir
 
Spd
km/h
Gust
km/h
Spd
kts
Gust
kts
30/11:49pm 11.0 9.9 10.1 94 0.5 SW 6 11 3 6 1024.5 1024.5 0.0
30/11:30pm 11.6 11.4 10.5 93 0.6 W 2 7 1 4 1024.6 1024.6 0.0
30/11:22pm 11.5 10.8 10.1 91 0.7 SW 4 11 2 6 1024.6 1024.6 0.0
30/11:00pm 12.7 11.2 11.8 94 0.5 S 11 13 6 7 1024.6 1024.6 0.0
30/10:30pm 12.9 12.1 11.8 93 0.6 SSE 7 11 4 6 1024.6 1024.6 0.0
30/10:00pm 13.7 12.7 12.4 92 0.7 SSE 9 13 5 7 1024.7 1024.7 0.0
30/09:30pm 13.8 12.8 12.4 91 0.8 SSE 9 11 5 6 1024.9 1024.9 0.0
30/09:00pm 14.6 13.5 13.0 90 0.9 SE 11 13 6 7 1024.7 1024.7 0.0
30/08:30pm 15.4 14.1 13.6 89 1.0 SE 13 17 7 9 1024.4 1024.4 0.0

Other Formats:

Comma delimited format used in spreadsheet applications
http://www.bom.gov.au/fwo/IDQ60801/IDQ60801.94387.axf

JavaScript Object Notation format (JSON) in row-major order
http://www.bom.gov.au/fwo/IDQ60801/IDQ60801.94387.json